Time;durP1;ratioP1;P1;durP2;ratioP2;P2;SDS_P1;SDS_P2;PMS_P1;PMS_P2;Temp;Humidity;BMP_temperature;BMP_pressure;BME280_temperature;BME280_humidity;BME280_pressure;Samples;Min_cycle;Max_cycle;Signal;HPM_P1;HPM_P2
2022/02/21 00:01:00;;;;;;;1.00;0.82;;;;;;;;;;5055609;28;20229;-86
2022/02/21 00:03:30;;;;;;;0.90;0.90;;;;;;;;;;5055676;28;20209;-86
2022/02/21 00:05:57;;;;;;;0.98;0.98;;;;;;;;;;5056645;28;20255;-86
2022/02/21 00:08:25;;;;;;;3.78;1.90;;;;;;;;;;5055787;28;20574;-88
2022/02/21 00:10:52;;;;;;;0.88;0.80;;;;;;;;;;5054859;28;20205;-85
2022/02/21 00:13:19;;;;;;;0.73;0.73;;;;;;;;;;5054052;28;20201;-86
2022/02/21 00:15:46;;;;;;;2.10;1.10;;;;;;;;;;5054349;28;20396;-88
2022/02/21 00:18:15;;;;;;;0.70;0.70;;;;;;;;;;5054726;28;20214;-87
2022/02/21 00:20:43;;;;;;;0.80;0.80;;;;;;;;;;5054074;28;20645;-86
2022/02/21 00:23:11;;;;;;;3.00;1.27;;;;;;;;;;5054421;28;20220;-87
2022/02/21 00:25:39;;;;;;;0.90;0.80;;;;;;;;;;5053921;28;20645;-87
2022/02/21 00:28:06;;;;;;;1.17;0.90;;;;;;;;;;5054715;28;20216;-88
2022/02/21 00:30:34;;;;;;;1.15;1.05;;;;;;;;;;5054457;28;20692;-86
2022/02/21 00:33:01;;;;;;;1.45;0.90;;;;;;;;;;5054037;28;20209;-88
2022/02/21 00:35:30;;;;;;;1.33;0.98;;;;;;;;;;5053444;28;20214;-87
2022/02/21 00:37:57;;;;;;;1.10;1.00;;;;;;;;;;5053637;28;20221;-86
2022/02/21 00:40:24;;;;;;;3.15;1.15;;;;;;;;;;5053712;28;20229;-87
2022/02/21 00:42:52;;;;;;;3.10;0.80;;;;;;;;;;5054387;28;20213;-88
2022/02/21 00:45:19;;;;;;;1.73;0.80;;;;;;;;;;5053797;28;20259;-86
2022/02/21 00:47:46;;;;;;;0.50;0.50;;;;;;;;;;5056943;28;20705;-87
2022/02/21 00:50:13;;;;;;;0.57;0.52;;;;;;;;;;5053858;28;20584;-86
2022/02/21 00:52:42;;;;;;;0.70;0.70;;;;;;;;;;5053531;28;20215;-85
2022/02/21 00:55:10;;;;;;;0.57;0.57;;;;;;;;;;5053558;28;20657;-88
2022/02/21 00:57:37;;;;;;;0.40;0.40;;;;;;;;;;5053983;28;20697;-85
2022/02/21 01:00:06;;;;;;;0.40;0.40;;;;;;;;;;5054136;28;20723;-88
2022/02/21 01:02:33;;;;;;;0.70;0.40;;;;;;;;;;5053918;28;20210;-87
2022/02/21 01:05:01;;;;;;;0.45;0.45;;;;;;;;;;5053429;28;20202;-86
2022/02/21 01:07:29;;;;;;;1.35;0.38;;;;;;;;;;5053925;28;20229;-87
2022/02/21 01:09:57;;;;;;;0.28;0.28;;;;;;;;;;5053545;28;20200;-86
2022/02/21 01:12:25;;;;;;;0.40;0.40;;;;;;;;;;5053321;28;20210;-87
2022/02/21 01:14:52;;;;;;;0.45;0.45;;;;;;;;;;5053279;28;20206;-86
2022/02/21 01:17:22;;;;;;;0.40;0.40;;;;;;;;;;5059550;28;20225;-87
2022/02/21 01:19:50;;;;;;;0.40;0.40;;;;;;;;;;5053675;28;20210;-87
2022/02/21 01:22:17;;;;;;;0.85;0.63;;;;;;;;;;5054025;28;20268;-87
2022/02/21 01:24:44;;;;;;;0.50;0.50;;;;;;;;;;5053926;28;20557;-87
2022/02/21 01:27:14;;;;;;;0.55;0.55;;;;;;;;;;5053481;28;20230;-85
2022/02/21 01:29:41;;;;;;;0.30;0.30;;;;;;;;;;5054150;28;20629;-87
2022/02/21 01:32:10;;;;;;;0.40;0.40;;;;;;;;;;5053461;28;20607;-87
2022/02/21 01:34:38;;;;;;;0.40;0.40;;;;;;;;;;5053572;28;20232;-87
2022/02/21 01:37:05;;;;;;;0.52;0.52;;;;;;;;;;5053267;28;20225;-86
2022/02/21 01:39:33;;;;;;;0.47;0.47;;;;;;;;;;5046653;28;20212;-87
2022/02/21 01:42:00;;;;;;;0.40;0.40;;;;;;;;;;5053266;28;20686;-87
2022/02/21 01:44:39;;;;;;;0.40;0.40;;;;;;;;;;5053797;28;20284;-85
2022/02/21 01:47:10;;;;;;;0.40;0.40;;;;;;;;;;5054576;28;20232;-87
2022/02/21 01:49:38;;;;;;;0.63;0.63;;;;;;;;;;5053256;28;20198;-87
2022/02/21 01:52:07;;;;;;;0.47;0.47;;;;;;;;;;5052551;28;20661;-87
2022/02/21 01:54:35;;;;;;;0.50;0.50;;;;;;;;;;5053043;28;20692;-86
2022/02/21 01:57:04;;;;;;;0.40;0.40;;;;;;;;;;5052899;28;20229;-86
2022/02/21 01:59:32;;;;;;;0.60;0.60;;;;;;;;;;5052992;28;20201;-86
2022/02/21 02:02:00;;;;;;;2.53;0.80;;;;;;;;;;5053372;28;20225;-88
2022/02/21 02:04:28;;;;;;;0.70;0.70;;;;;;;;;;5053805;28;20674;-87
2022/02/21 02:06:55;;;;;;;1.48;0.60;;;;;;;;;;5053849;28;20229;-88
2022/02/21 02:09:23;;;;;;;0.95;0.57;;;;;;;;;;5054130;28;20215;-88
2022/02/21 02:11:51;;;;;;;0.80;0.80;;;;;;;;;;5054966;28;20217;-87
2022/02/21 02:14:33;;;;;;;2.40;1.00;;;;;;;;;;5053052;28;20691;-87
2022/02/21 02:17:05;;;;;;;0.65;0.60;;;;;;;;;;5061520;28;20240;-87
2022/02/21 02:19:33;;;;;;;0.73;0.70;;;;;;;;;;5057864;28;20666;-88
2022/02/21 02:22:08;;;;;;;0.70;0.70;;;;;;;;;;5057875;28;20233;-87
2022/02/21 02:24:36;;;;;;;2.75;0.93;;;;;;;;;;5057964;28;20311;-87
2022/02/21 02:27:03;;;;;;;4.93;1.77;;;;;;;;;;5057485;28;20619;-86
2022/02/21 02:29:31;;;;;;;1.33;1.23;;;;;;;;;;5057474;28;20243;-86
2022/02/21 02:31:58;;;;;;;2.20;1.45;;;;;;;;;;5056915;28;20206;-87
2022/02/21 02:34:25;;;;;;;1.55;1.08;;;;;;;;;;5057867;28;20610;-87
2022/02/21 02:36:53;;;;;;;1.50;1.10;;;;;;;;;;5058284;28;20232;-86
2022/02/21 02:39:22;;;;;;;1.10;1.00;;;;;;;;;;5056702;28;20216;-87
2022/02/21 02:41:49;;;;;;;2.47;1.05;;;;;;;;;;5057344;28;20613;-87
2022/02/21 02:44:16;;;;;;;2.10;1.10;;;;;;;;;;5056787;28;20635;-87
2022/02/21 02:46:44;;;;;;;1.70;1.13;;;;;;;;;;5058607;28;20827;-87
2022/02/21 02:49:11;;;;;;;1.52;0.98;;;;;;;;;;5056574;28;20202;-86
2022/02/21 02:51:38;;;;;;;2.67;1.10;;;;;;;;;;5056885;28;20197;-86
2022/02/21 02:54:07;;;;;;;2.38;1.17;;;;;;;;;;5056431;28;20205;-85
2022/02/21 02:56:36;;;;;;;1.63;0.93;;;;;;;;;;5056964;28;20221;-86
2022/02/21 02:59:04;;;;;;;6.70;1.30;;;;;;;;;;5057198;28;20506;-87
2022/02/21 03:01:32;;;;;;;4.55;1.50;;;;;;;;;;5056507;28;20237;-88
2022/02/21 03:04:01;;;;;;;1.13;1.00;;;;;;;;;;5056957;28;20210;-86
2022/02/21 03:06:29;;;;;;;3.10;1.00;;;;;;;;;;5056229;28;20225;-84
2022/02/21 03:08:57;;;;;;;2.03;1.30;;;;;;;;;;5055846;28;20210;-86
2022/02/21 03:11:24;;;;;;;2.42;2.20;;;;;;;;;;5055953;28;20210;-86
2022/02/21 03:13:54;;;;;;;1.48;1.10;;;;;;;;;;5055246;28;20202;-85
2022/02/21 03:16:22;;;;;;;3.35;0.98;;;;;;;;;;5060064;28;20217;-87
2022/02/21 03:18:49;;;;;;;1.40;1.10;;;;;;;;;;5055626;28;20210;-87
2022/02/21 03:21:16;;;;;;;2.47;1.20;;;;;;;;;;5055590;28;20209;-87
2022/02/21 03:23:44;;;;;;;4.20;1.17;;;;;;;;;;5056496;28;20607;-87
2022/02/21 03:26:11;;;;;;;3.75;1.42;;;;;;;;;;5057439;28;20697;-86
2022/02/21 03:28:38;;;;;;;1.75;1.58;;;;;;;;;;5057016;28;20259;-87
2022/02/21 03:31:08;;;;;;;2.72;1.65;;;;;;;;;;5057378;28;20209;-87
2022/02/21 03:33:35;;;;;;;3.92;1.45;;;;;;;;;;5056953;28;20224;-86
2022/02/21 03:36:03;;;;;;;2.63;1.10;;;;;;;;;;5056171;28;20225;-85
2022/02/21 03:38:30;;;;;;;4.38;1.10;;;;;;;;;;5056050;28;20213;-85
2022/02/21 03:40:57;;;;;;;0.80;0.80;;;;;;;;;;5056193;28;20212;-85
2022/02/21 03:43:24;;;;;;;4.75;1.50;;;;;;;;;;5056634;28;20275;-85
2022/02/21 03:45:52;;;;;;;2.20;1.35;;;;;;;;;;5055806;28;20250;-86
2022/02/21 03:48:20;;;;;;;2.75;1.42;;;;;;;;;;5056843;28;20204;-84
2022/02/21 03:50:48;;;;;;;2.50;1.33;;;;;;;;;;5056088;28;20212;-85
2022/02/21 03:53:15;;;;;;;3.33;2.17;;;;;;;;;;5056083;28;20258;-85
2022/02/21 03:55:42;;;;;;;1.83;1.13;;;;;;;;;;5056088;28;20216;-87
2022/02/21 03:58:11;;;;;;;13.48;2.22;;;;;;;;;;5055863;28;20661;-87
2022/02/21 04:00:38;;;;;;;4.75;1.35;;;;;;;;;;5055940;28;20577;-85
2022/02/21 04:03:06;;;;;;;4.05;1.35;;;;;;;;;;5054281;28;20236;-86
2022/02/21 04:05:34;;;;;;;4.75;1.38;;;;;;;;;;5055838;28;20599;-86
2022/02/21 04:08:02;;;;;;;2.45;1.40;;;;;;;;;;5055464;28;20748;-84
2022/02/21 04:10:29;;;;;;;1.15;1.02;;;;;;;;;;5055686;28;20584;-86
2022/02/21 04:12:56;;;;;;;2.95;1.23;;;;;;;;;;5054712;28;20214;-87
2022/02/21 04:15:24;;;;;;;2.45;1.70;;;;;;;;;;5054883;28;20256;-85
2022/02/21 04:17:53;;;;;;;3.05;1.25;;;;;;;;;;5058979;28;20236;-85
2022/02/21 04:20:22;;;;;;;4.43;1.67;;;;;;;;;;5054965;28;20205;-85
2022/02/21 04:22:50;;;;;;;2.08;1.50;;;;;;;;;;5054512;28;20229;-86
2022/02/21 04:25:18;;;;;;;2.17;1.50;;;;;;;;;;5055429;28;20271;-86
2022/02/21 04:27:49;;;;;;;1.90;1.00;;;;;;;;;;5092749;22;20216;-84
2022/02/21 04:30:19;;;;;;;3.83;1.00;;;;;;;;;;5080505;28;20197;-83
2022/02/21 04:32:47;;;;;;;5.65;1.45;;;;;;;;;;5075769;28;20200;-84
2022/02/21 04:35:16;;;;;;;2.30;1.05;;;;;;;;;;5076548;28;20744;-82
2022/02/21 04:37:44;;;;;;;2.10;0.90;;;;;;;;;;5075914;28;20225;-82
2022/02/21 04:40:16;;;;;;;0.95;0.80;;;;;;;;;;5074669;28;20201;-83
2022/02/21 04:42:43;;;;;;;1.63;1.52;;;;;;;;;;5068103;28;20727;-83
2022/02/21 04:45:11;;;;;;;1.00;1.00;;;;;;;;;;5079732;28;20193;-82
2022/02/21 04:47:38;;;;;;;1.52;1.42;;;;;;;;;;5075307;28;20248;-83
2022/02/21 04:50:08;;;;;;;1.30;1.13;;;;;;;;;;5075029;28;20201;-82
2022/02/21 04:52:37;;;;;;;1.83;1.30;;;;;;;;;;5068549;28;20583;-83
2022/02/21 04:55:07;;;;;;;1.77;1.65;;;;;;;;;;5069298;28;20211;-82
2022/02/21 04:57:35;;;;;;;1.27;1.10;;;;;;;;;;5069277;28;20278;-82
2022/02/21 05:00:04;;;;;;;1.67;1.20;;;;;;;;;;5075028;28;20205;-82
2022/02/21 05:02:31;;;;;;;1.70;1.58;;;;;;;;;;5074968;28;20681;-83
2022/02/21 05:04:59;;;;;;;1.27;1.17;;;;;;;;;;5074867;28;20625;-82
2022/02/21 05:07:26;;;;;;;1.38;1.27;;;;;;;;;;5074858;28;20232;-83
2022/02/21 05:09:53;;;;;;;2.80;1.88;;;;;;;;;;5074496;28;20665;-82
2022/02/21 05:12:21;;;;;;;1.25;1.10;;;;;;;;;;5074028;28;20219;-83
2022/02/21 05:14:49;;;;;;;5.88;1.35;;;;;;;;;;5075060;28;20208;-82
2022/02/21 05:17:16;;;;;;;2.75;1.70;;;;;;;;;;5075153;28;20740;-83
2022/02/21 05:19:44;;;;;;;1.70;1.23;;;;;;;;;;5075664;28;20200;-82
2022/02/21 05:22:11;;;;;;;2.72;1.88;;;;;;;;;;5076729;28;20215;-82
2022/02/21 05:24:38;;;;;;;2.65;1.58;;;;;;;;;;5074834;28;20225;-82
2022/02/21 05:27:06;;;;;;;8.85;2.35;;;;;;;;;;5074403;28;20610;-83
2022/02/21 05:29:33;;;;;;;3.33;2.50;;;;;;;;;;5074387;28;20499;-83
2022/02/21 05:32:01;;;;;;;3.85;3.33;;;;;;;;;;5074460;28;20197;-82
2022/02/21 05:34:29;;;;;;;2.03;1.88;;;;;;;;;;5069167;28;20212;-83
2022/02/21 05:36:56;;;;;;;1.67;1.58;;;;;;;;;;5075998;28;20225;-82
2022/02/21 05:39:23;;;;;;;0.95;0.95;;;;;;;;;;5075962;28;20211;-82
2022/02/21 05:41:51;;;;;;;0.90;0.90;;;;;;;;;;5075190;28;20208;-83
2022/02/21 05:44:18;;;;;;;1.08;0.80;;;;;;;;;;5073586;28;20266;-82
2022/02/21 05:46:45;;;;;;;1.33;1.23;;;;;;;;;;5071833;28;20270;-83
2022/02/21 05:49:14;;;;;;;2.05;1.65;;;;;;;;;;5068418;28;20216;-84
2022/02/21 05:51:41;;;;;;;1.55;1.10;;;;;;;;;;5070908;28;20220;-83
2022/02/21 05:54:09;;;;;;;1.55;1.45;;;;;;;;;;5073906;28;20212;-83
2022/02/21 05:56:36;;;;;;;2.25;1.65;;;;;;;;;;5073771;28;20197;-84
2022/02/21 05:59:05;;;;;;;1.73;1.63;;;;;;;;;;5073089;28;20320;-83
2022/02/21 06:01:32;;;;;;;3.50;1.35;;;;;;;;;;5079293;28;20200;-83
2022/02/21 06:03:59;;;;;;;2.97;2.28;;;;;;;;;;5073358;28;20224;-83
2022/02/21 06:06:28;;;;;;;1.70;1.10;;;;;;;;;;5072011;28;20247;-84
2022/02/21 06:08:55;;;;;;;1.95;1.50;;;;;;;;;;5072060;28;20208;-84
2022/02/21 06:11:22;;;;;;;2.63;1.17;;;;;;;;;;5071592;28;20209;-84
2022/02/21 06:13:50;;;;;;;1.42;1.17;;;;;;;;;;5078297;28;20201;-83
2022/02/21 06:16:17;;;;;;;3.03;1.30;;;;;;;;;;5079662;28;20213;-82
2022/02/21 06:18:44;;;;;;;1.85;1.50;;;;;;;;;;5079111;28;20225;-82
2022/02/21 06:21:11;;;;;;;1.52;1.15;;;;;;;;;;5078830;28;20205;-83
2022/02/21 06:23:40;;;;;;;1.23;1.20;;;;;;;;;;5078203;28;20223;-83
2022/02/21 06:26:08;;;;;;;2.90;1.55;;;;;;;;;;5074018;28;20262;-83
2022/02/21 06:28:35;;;;;;;6.25;1.83;;;;;;;;;;5077800;28;20237;-84
2022/02/21 06:31:08;;;;;;;1.60;1.50;;;;;;;;;;5078058;28;20216;-82
2022/02/21 06:33:35;;;;;;;1.50;1.40;;;;;;;;;;5079015;28;20201;-85
2022/02/21 06:36:03;;;;;;;2.15;1.00;;;;;;;;;;5077956;28;20291;-83
2022/02/21 06:38:30;;;;;;;1.88;1.75;;;;;;;;;;5079570;28;20229;-83
2022/02/21 06:40:59;;;;;;;2.22;1.60;;;;;;;;;;5077517;28;20200;-83
2022/02/21 06:43:26;;;;;;;6.63;2.33;;;;;;;;;;5077566;28;20219;-84
2022/02/21 06:45:54;;;;;;;7.25;1.95;;;;;;;;;;5080109;28;20216;-84
2022/02/21 06:48:22;;;;;;;2.33;1.48;;;;;;;;;;5086752;28;20618;-85
2022/02/21 06:50:49;;;;;;;5.65;1.73;;;;;;;;;;5082398;28;20235;-85
2022/02/21 06:53:17;;;;;;;2.38;1.30;;;;;;;;;;5082016;28;20255;-83
2022/02/21 06:55:44;;;;;;;3.92;1.70;;;;;;;;;;5084029;28;20833;-84
2022/02/21 06:58:13;;;;;;;2.08;1.52;;;;;;;;;;5079764;28;20220;-84
2022/02/21 07:00:42;;;;;;;4.07;2.17;;;;;;;;;;5079384;28;20591;-83
2022/02/21 07:03:10;;;;;;;5.32;1.92;;;;;;;;;;5077985;28;20205;-84
2022/02/21 07:05:39;;;;;;;3.13;2.10;;;;;;;;;;5078838;28;20235;-84
2022/02/21 07:08:07;;;;;;;5.85;1.95;;;;;;;;;;5083810;28;20225;-85
2022/02/21 07:10:34;;;;;;;4.35;1.40;;;;;;;;;;5078381;28;20209;-83
2022/02/21 07:13:02;;;;;;;2.83;1.48;;;;;;;;;;5078221;28;20209;-85
2022/02/21 07:15:32;;;;;;;2.88;2.00;;;;;;;;;;5077731;28;20208;-84
2022/02/21 07:17:59;;;;;;;2.92;1.45;;;;;;;;;;5077676;28;20700;-83
2022/02/21 07:20:27;;;;;;;9.00;2.47;;;;;;;;;;5078463;28;20208;-83
2022/02/21 07:22:55;;;;;;;3.25;1.77;;;;;;;;;;5077623;28;20209;-83
2022/02/21 07:25:22;;;;;;;3.60;1.50;;;;;;;;;;5077934;28;20225;-83
2022/02/21 07:27:52;;;;;;;5.13;1.58;;;;;;;;;;5077176;28;20586;-84
2022/02/21 07:30:23;;;;;;;1.90;1.52;;;;;;;;;;5077869;28;20207;-83
2022/02/21 07:32:52;;;;;;;3.80;1.98;;;;;;;;;;5078340;28;20213;-84
2022/02/21 07:35:20;;;;;;;3.92;1.50;;;;;;;;;;5078010;28;20205;-83
2022/02/21 07:37:47;;;;;;;2.60;1.20;;;;;;;;;;5077290;28;20225;-83
2022/02/21 07:40:15;;;;;;;4.47;1.17;;;;;;;;;;5076993;28;20208;-83
2022/02/21 07:42:49;;;;;;;5.00;1.90;;;;;;;;;;5078071;28;20217;-83
2022/02/21 07:45:19;;;;;;;1.20;1.10;;;;;;;;;;5079880;28;20217;-84
2022/02/21 07:47:48;;;;;;;2.75;1.73;;;;;;;;;;5077030;28;20642;-84
2022/02/21 07:50:18;;;;;;;1.27;1.17;;;;;;;;;;5077596;28;20201;-83
2022/02/21 07:52:46;;;;;;;2.78;1.58;;;;;;;;;;5077365;28;20580;-84
2022/02/21 07:55:14;;;;;;;4.30;2.08;;;;;;;;;;5077334;28;20208;-84
2022/02/21 07:57:42;;;;;;;1.60;1.40;;;;;;;;;;5077182;28;20236;-84
2022/02/21 08:00:12;;;;;;;2.67;1.67;;;;;;;;;;5077418;28;20201;-84
2022/02/21 08:02:41;;;;;;;3.28;2.78;;;;;;;;;;5076797;28;20197;-84
2022/02/21 08:05:10;;;;;;;1.48;1.38;;;;;;;;;;5077100;28;20229;-85
2022/02/21 08:07:40;;;;;;;1.67;1.52;;;;;;;;;;5078389;28;20229;-84
2022/02/21 08:10:09;;;;;;;3.25;1.95;;;;;;;;;;5078450;28;20275;-84
2022/02/21 08:12:36;;;;;;;2.20;1.52;;;;;;;;;;5076200;28;20239;-83
2022/02/21 08:15:05;;;;;;;3.42;1.40;;;;;;;;;;5075988;28;20208;-83
2022/02/21 08:17:40;;;;;;;3.80;2.03;;;;;;;;;;5074801;28;20282;-83
2022/02/21 08:20:08;;;;;;;1.85;1.40;;;;;;;;;;5070828;28;20200;-83
2022/02/21 08:22:37;;;;;;;4.95;2.42;;;;;;;;;;5076223;28;20768;-83
2022/02/21 08:25:06;;;;;;;2.90;1.58;;;;;;;;;;5076283;28;20619;-83
2022/02/21 08:27:37;;;;;;;3.17;1.70;;;;;;;;;;5076581;28;20228;-83
2022/02/21 08:30:07;;;;;;;5.55;1.83;;;;;;;;;;5076589;28;20248;-83
2022/02/21 08:32:34;;;;;;;4.45;1.85;;;;;;;;;;5074322;28;20714;-83
2022/02/21 08:35:02;;;;;;;2.25;1.75;;;;;;;;;;5076405;28;20685;-83
2022/02/21 08:37:29;;;;;;;4.18;1.98;;;;;;;;;;5075903;28;20225;-83
2022/02/21 08:39:58;;;;;;;4.15;2.40;;;;;;;;;;5075607;28;20258;-84
2022/02/21 08:42:25;;;;;;;4.32;2.85;;;;;;;;;;5074555;28;20208;-85
2022/02/21 08:44:53;;;;;;;2.47;1.55;;;;;;;;;;5079058;28;20217;-83
2022/02/21 08:47:21;;;;;;;5.13;1.90;;;;;;;;;;5075386;28;20224;-82
2022/02/21 08:49:49;;;;;;;4.63;2.15;;;;;;;;;;5072823;28;20273;-83
2022/02/21 08:52:17;;;;;;;4.90;2.33;;;;;;;;;;5075271;28;20197;-84
2022/02/21 08:54:45;;;;;;;2.45;1.98;;;;;;;;;;5075725;28;20657;-84
2022/02/21 08:57:14;;;;;;;3.60;2.38;;;;;;;;;;5075785;28;20236;-84
2022/02/21 08:59:56;;;;;;;3.38;2.05;;;;;;;;;;5096740;27;20736;-84
2022/02/21 09:02:24;;;;;;;3.83;2.08;;;;;;;;;;5092374;28;20208;-84
2022/02/21 09:04:51;;;;;;;3.50;1.40;;;;;;;;;;5100470;28;20228;-82
2022/02/21 09:07:18;;;;;;;5.93;1.70;;;;;;;;;;5099349;28;20224;-83
2022/02/21 09:09:46;;;;;;;1.38;1.20;;;;;;;;;;5096376;28;20204;-82
2022/02/21 09:12:13;;;;;;;1.48;1.10;;;;;;;;;;5099491;28;20234;-83
2022/02/21 09:14:46;;;;;;;1.52;1.40;;;;;;;;;;5099672;28;20299;-84
2022/02/21 09:17:15;;;;;;;1.63;1.00;;;;;;;;;;5095379;28;20247;-83
2022/02/21 09:19:44;;;;;;;2.80;1.48;;;;;;;;;;5100141;28;20712;-83
2022/02/21 09:22:11;;;;;;;1.42;1.00;;;;;;;;;;5095736;28;20645;-83
2022/02/21 09:24:39;;;;;;;2.53;1.50;;;;;;;;;;5094082;28;20598;-84
2022/02/21 09:27:06;;;;;;;2.95;1.25;;;;;;;;;;5094041;28;20704;-84
2022/02/21 09:29:35;;;;;;;6.05;1.73;;;;;;;;;;5093744;28;20207;-84
2022/02/21 09:32:02;;;;;;;3.03;1.58;;;;;;;;;;5092935;28;20660;-84
2022/02/21 09:34:32;;;;;;;2.45;2.03;;;;;;;;;;5092543;28;20204;-85
2022/02/21 09:36:59;;;;;;;7.43;1.90;;;;;;;;;;5094089;28;20220;-84
2022/02/21 09:39:27;;;;;;;4.50;1.58;;;;;;;;;;5093046;28;20253;-84
2022/02/21 09:41:55;;;;;;;2.72;1.55;;;;;;;;;;5093859;28;20208;-84
2022/02/21 09:44:22;;;;;;;4.45;1.75;;;;;;;;;;5098545;28;20196;-86
2022/02/21 09:46:50;;;;;;;2.92;1.55;;;;;;;;;;5098455;28;20224;-84
2022/02/21 09:49:19;;;;;;;2.42;1.63;;;;;;;;;;5093226;28;20204;-83
2022/02/21 09:51:48;;;;;;;2.70;1.65;;;;;;;;;;5096780;28;20282;-83
2022/02/21 09:54:16;;;;;;;4.20;2.13;;;;;;;;;;5093837;28;20216;-84
2022/02/21 09:56:47;;;;;;;2.67;1.30;;;;;;;;;;5093223;28;20205;-83
2022/02/21 09:59:15;;;;;;;2.35;1.77;;;;;;;;;;5093081;28;20282;-84
2022/02/21 10:01:45;;;;;;;4.60;1.40;;;;;;;;;;5093111;28;20201;-84
2022/02/21 10:04:13;;;;;;;1.92;1.55;;;;;;;;;;5092963;28;20208;-82
2022/02/21 10:06:41;;;;;;;3.58;1.58;;;;;;;;;;5093543;28;20237;-85
2022/02/21 10:09:12;;;;;;;2.55;1.75;;;;;;;;;;5091762;28;20203;-84
2022/02/21 10:11:41;;;;;;;2.33;1.50;;;;;;;;;;5079054;28;20227;-85
2022/02/21 10:14:12;;;;;;;4.53;1.90;;;;;;;;;;5079125;28;20201;-85
2022/02/21 10:16:43;;;;;;;3.13;1.65;;;;;;;;;;5078979;28;20572;-84
2022/02/21 10:19:18;;;;;;;2.67;1.33;;;;;;;;;;5078524;28;20610;-85
2022/02/21 10:21:50;;;;;;;3.35;1.92;;;;;;;;;;5071377;28;20676;-84
2022/02/21 10:24:19;;;;;;;3.63;1.95;;;;;;;;;;5074768;28;20661;-85
2022/02/21 10:29:17;;;;;;;1.35;1.25;;;;;;;;;;4999606;28;20212;-84
2022/02/21 10:31:45;;;;;;;3.55;1.80;;;;;;;;;;4995937;28;20215;-81
2022/02/21 10:34:12;;;;;;;5.38;2.22;;;;;;;;;;5000634;28;20218;-81
2022/02/21 10:36:42;;;;;;;2.05;1.67;;;;;;;;;;4999822;28;20212;-83
2022/02/21 10:39:11;;;;;;;3.05;1.83;;;;;;;;;;4999251;28;20696;-83
2022/02/21 10:41:48;;;;;;;1.65;1.38;;;;;;;;;;4999353;28;20624;-83
2022/02/21 10:44:22;;;;;;;1.13;1.13;;;;;;;;;;4998541;28;20682;-83
2022/02/21 10:47:11;;;;;;;3.10;2.00;;;;;;;;;;4999258;28;20220;-84
2022/02/21 10:49:46;;;;;;;4.28;2.15;;;;;;;;;;4998899;28;20340;-84
2022/02/21 10:52:17;;;;;;;3.03;1.60;;;;;;;;;;4998877;28;20265;-83
2022/02/21 10:54:45;;;;;;;2.00;1.58;;;;;;;;;;5010879;28;20223;-82
2022/02/21 10:57:17;;;;;;;2.10;1.60;;;;;;;;;;5016655;28;20751;-84
2022/02/21 10:59:44;;;;;;;2.53;1.42;;;;;;;;;;5018083;28;20691;-83
2022/02/21 11:02:15;;;;;;;3.70;1.88;;;;;;;;;;5017610;28;20285;-83
2022/02/21 11:04:43;;;;;;;2.60;1.65;;;;;;;;;;5017255;28;20203;-83
2022/02/21 11:07:12;;;;;;;3.58;2.30;;;;;;;;;;5016571;28;20252;-83
2022/02/21 11:09:40;;;;;;;4.53;1.90;;;;;;;;;;5015659;28;20202;-82
2022/02/21 11:12:09;;;;;;;1.55;1.25;;;;;;;;;;4999450;28;20211;-83
2022/02/21 11:14:40;;;;;;;3.30;2.45;;;;;;;;;;5002082;28;20594;-83
2022/02/21 11:17:10;;;;;;;3.78;2.05;;;;;;;;;;4998114;28;20228;-83
2022/02/21 11:19:38;;;;;;;3.65;1.23;;;;;;;;;;5004018;28;20242;-82
2022/02/21 11:22:07;;;;;;;3.15;1.83;;;;;;;;;;4996076;28;20212;-81
2022/02/21 11:24:37;;;;;;;1.85;1.38;;;;;;;;;;4997549;28;20266;-82
2022/02/21 11:27:33;;;;;;;4.32;1.73;;;;;;;;;;4999193;28;20215;-82
2022/02/21 11:30:09;;;;;;;2.50;1.90;;;;;;;;;;4990479;28;20619;-84
2022/02/21 11:32:40;;;;;;;1.65;1.52;;;;;;;;;;4991715;28;20714;-83
2022/02/21 11:35:17;;;;;;;2.92;1.95;;;;;;;;;;4996791;28;20306;-83
2022/02/21 11:37:45;;;;;;;2.58;1.65;;;;;;;;;;4996874;28;20228;-81
2022/02/21 11:40:13;;;;;;;5.90;2.28;;;;;;;;;;4999807;28;20227;-83
2022/02/21 11:42:40;;;;;;;2.63;1.75;;;;;;;;;;5015778;28;20211;-84
2022/02/21 11:45:25;;;;;;;2.97;2.33;;;;;;;;;;5002632;28;20204;-82
2022/02/21 11:47:57;;;;;;;3.70;2.00;;;;;;;;;;4996864;28;20260;-83
2022/02/21 11:50:28;;;;;;;4.80;2.17;;;;;;;;;;5001862;28;20207;-82
2022/02/21 11:52:58;;;;;;;3.47;1.67;;;;;;;;;;5015507;28;20206;-83
2022/02/21 11:55:43;;;;;;;2.15;1.50;;;;;;;;;;5009734;28;20623;-83
2022/02/21 11:58:43;;;;;;;3.05;1.42;;;;;;;;;;4996426;28;20274;-83
2022/02/21 12:01:14;;;;;;;3.85;1.60;;;;;;;;;;5002627;28;20280;-83
2022/02/21 12:03:42;;;;;;;2.75;1.13;;;;;;;;;;4997102;28;20211;-83
2022/02/21 12:06:30;;;;;;;5.75;2.05;;;;;;;;;;5015368;28;20206;-83
2022/02/21 12:09:03;;;;;;;2.33;1.60;;;;;;;;;;5013288;28;20230;-83
2022/02/21 12:11:31;;;;;;;2.70;1.60;;;;;;;;;;4996856;28;20235;-83
2022/02/21 12:14:19;;;;;;;2.25;1.10;;;;;;;;;;4996908;28;20861;-82
2022/02/21 12:17:07;;;;;;;2.55;1.98;;;;;;;;;;4996915;28;20204;-84
2022/02/21 12:19:40;;;;;;;1.35;1.23;;;;;;;;;;4999244;28;20207;-83
2022/02/21 12:22:17;;;;;;;2.72;1.95;;;;;;;;;;5002519;28;20230;-83
2022/02/21 12:25:14;;;;;;;5.50;1.77;;;;;;;;;;5006372;28;20266;-84
2022/02/21 12:28:17;;;;;;;2.58;1.90;;;;;;;;;;5014131;28;20304;-84
2022/02/21 12:30:48;;;;;;;1.95;1.65;;;;;;;;;;5022221;28;20234;-83
2022/02/21 12:33:25;;;;;;;3.22;1.48;;;;;;;;;;5022061;28;20581;-83
2022/02/21 12:35:57;;;;;;;2.42;1.75;;;;;;;;;;5021807;28;20203;-84
2022/02/21 12:38:26;;;;;;;3.58;2.08;;;;;;;;;;5024353;28;20317;-84
2022/02/21 12:41:04;;;;;;;2.88;1.30;;;;;;;;;;5023497;28;20301;-83
2022/02/21 12:43:46;;;;;;;1.80;1.40;;;;;;;;;;5024545;28;20270;-84
2022/02/21 12:46:14;;;;;;;2.17;1.23;;;;;;;;;;5017437;28;20207;-83
2022/02/21 12:48:44;;;;;;;2.65;1.20;;;;;;;;;;5020792;28;20242;-83
2022/02/21 12:51:20;;;;;;;2.17;1.17;;;;;;;;;;5019825;28;20206;-83
2022/02/21 12:53:58;;;;;;;1.55;0.98;;;;;;;;;;5014666;28;20741;-84
2022/02/21 12:56:26;;;;;;;3.03;1.58;;;;;;;;;;5014500;28;20210;-84
2022/02/21 12:58:53;;;;;;;3.75;1.50;;;;;;;;;;5013493;28;20215;-84
2022/02/21 13:01:22;;;;;;;1.70;1.40;;;;;;;;;;5014280;28;20237;-85
2022/02/21 13:03:58;;;;;;;3.47;1.65;;;;;;;;;;5014751;28;20207;-84
2022/02/21 13:06:27;;;;;;;2.30;1.13;;;;;;;;;;5015165;28;20705;-84
2022/02/21 13:08:55;;;;;;;3.38;2.10;;;;;;;;;;5014897;28;20223;-83
2022/02/21 13:11:28;;;;;;;2.42;1.30;;;;;;;;;;5015353;28;20214;-83
2022/02/21 13:13:58;;;;;;;6.47;1.63;;;;;;;;;;5014478;28;20211;-84
2022/02/21 13:16:26;;;;;;;2.13;1.10;;;;;;;;;;5013344;28;20207;-84
2022/02/21 13:18:59;;;;;;;3.67;1.55;;;;;;;;;;5013260;28;20235;-85
2022/02/21 13:21:35;;;;;;;4.82;1.40;;;;;;;;;;5013207;28;20227;-84
2022/02/21 13:24:05;;;;;;;2.75;1.45;;;;;;;;;;5012997;28;20389;-85
2022/02/21 13:26:58;;;;;;;2.42;1.60;;;;;;;;;;5012865;28;20206;-84
2022/02/21 13:29:37;;;;;;;1.77;1.20;;;;;;;;;;4989893;28;20214;-84
2022/02/21 13:32:07;;;;;;;3.10;1.50;;;;;;;;;;5012480;28;20257;-84
2022/02/21 13:34:49;;;;;;;1.77;1.10;;;;;;;;;;4997089;28;20631;-83
2022/02/21 13:37:20;;;;;;;1.08;0.88;;;;;;;;;;4993762;28;20231;-84
2022/02/21 13:39:51;;;;;;;3.30;1.30;;;;;;;;;;4999468;28;20221;-85
2022/02/21 13:42:27;;;;;;;1.58;1.10;;;;;;;;;;5012420;28;20730;-84
2022/02/21 13:45:23;;;;;;;2.85;1.60;;;;;;;;;;4988413;28;20204;-86
2022/02/21 13:48:04;;;;;;;1.75;1.30;;;;;;;;;;4979324;28;20311;-86
2022/02/21 13:50:48;;;;;;;4.70;1.48;;;;;;;;;;4996934;28;20208;-85
2022/02/21 13:53:31;;;;;;;2.70;1.40;;;;;;;;;;4996928;28;20231;-84
2022/02/21 13:56:01;;;;;;;0.98;0.85;;;;;;;;;;5000663;28;20879;-84
2022/02/21 13:58:32;;;;;;;1.00;0.90;;;;;;;;;;5015808;28;20230;-85
2022/02/21 14:01:08;;;;;;;0.60;0.60;;;;;;;;;;5015588;28;20318;-83
2022/02/21 14:03:41;;;;;;;0.70;0.70;;;;;;;;;;5016267;28;20219;-82
2022/02/21 14:06:10;;;;;;;1.65;0.70;;;;;;;;;;5016333;28;20207;-84
2022/02/21 14:08:44;;;;;;;1.08;0.95;;;;;;;;;;4998386;28;20598;-86
2022/02/21 14:11:13;;;;;;;1.30;1.20;;;;;;;;;;4991619;28;20215;-82
2022/02/21 14:13:41;;;;;;;3.50;1.30;;;;;;;;;;4996918;28;20219;-84
2022/02/21 14:16:10;;;;;;;0.43;0.43;;;;;;;;;;5007755;28;20630;-83
2022/02/21 14:18:39;;;;;;;0.63;0.63;;;;;;;;;;5009760;28;20215;-85
2022/02/21 14:21:09;;;;;;;1.02;0.93;;;;;;;;;;4996728;28;20227;-85
2022/02/21 14:23:37;;;;;;;2.22;2.03;;;;;;;;;;5010671;28;20207;-84
2022/02/21 14:26:05;;;;;;;1.27;1.15;;;;;;;;;;5016971;28;20202;-82
2022/02/21 14:28:32;;;;;;;1.58;1.48;;;;;;;;;;5018991;28;20234;-84
2022/02/21 14:31:00;;;;;;;1.90;1.80;;;;;;;;;;5017150;28;20203;-84
2022/02/21 14:33:28;;;;;;;1.30;1.20;;;;;;;;;;5015976;28;20210;-85
2022/02/21 14:35:56;;;;;;;1.30;1.20;;;;;;;;;;5016733;28;20210;-84
2022/02/21 14:38:26;;;;;;;0.95;0.77;;;;;;;;;;5016847;28;20234;-84
2022/02/21 14:40:54;;;;;;;0.90;0.90;;;;;;;;;;5016177;28;20257;-85
2022/02/21 14:43:22;;;;;;;0.73;0.73;;;;;;;;;;5016309;28;20261;-85
2022/02/21 14:45:50;;;;;;;0.82;0.82;;;;;;;;;;5016838;28;20214;-85
2022/02/21 14:48:17;;;;;;;0.70;0.70;;;;;;;;;;5015370;28;20225;-84
2022/02/21 14:50:45;;;;;;;1.55;1.45;;;;;;;;;;5015533;28;20221;-84
2022/02/21 14:53:13;;;;;;;1.10;1.00;;;;;;;;;;5015250;28;20206;-83
2022/02/21 14:55:44;;;;;;;0.70;0.70;;;;;;;;;;5016023;28;20207;-82
2022/02/21 14:58:12;;;;;;;0.85;0.70;;;;;;;;;;5015095;28;20235;-85
2022/02/21 15:00:39;;;;;;;0.73;0.73;;;;;;;;;;5014629;28;20206;-84